Time;durP1;ratioP1;P1;durP2;ratioP2;P2;SDS_P1;SDS_P2;PMS_P1;PMS_P2;Temp;Humidity;BMP_temperature;BMP_pressure;BME280_temperature;BME280_humidity;BME280_pressure;Samples;Min_cycle;Max_cycle;Signal;HPM_P1;HPM_P2
2023/08/02 00:01:16;;;;;;;22.40;21.50;;;22.60;98.40;;;;;;5014141;28;20543;-53
2023/08/02 00:03:43;;;;;;;22.70;21.50;;;22.60;98.40;;;;;;5014315;28;20504;-55
2023/08/02 00:06:14;;;;;;;23.30;22.20;;;22.60;98.60;;;;;;5014611;28;20441;-57
2023/08/02 00:08:42;;;;;;;22.70;21.80;;;22.60;98.40;;;;;;5014599;28;20438;-56
2023/08/02 00:11:21;;;;;;;22.27;21.27;;;22.60;98.90;;;;;;5014378;28;20481;-55
2023/08/02 00:13:54;;;;;;;22.73;21.83;;;22.50;98.50;;;;;;5013618;28;20442;-56
2023/08/02 00:16:22;;;;;;;22.30;21.40;;;22.50;98.50;;;;;;5014332;28;20932;-54
2023/08/02 00:18:49;;;;;;;23.27;22.27;;;22.50;98.60;;;;;;5014142;28;20442;-56
2023/08/02 00:21:17;;;;;;;22.70;21.70;;;22.50;98.50;;;;;;5014010;28;20886;-53
2023/08/02 00:23:45;;;;;;;21.20;20.40;;;22.50;98.70;;;;;;5013372;28;21074;-52
2023/08/02 00:26:13;;;;;;;21.93;21.13;;;22.50;98.60;;;;;;5012987;28;20477;-54
2023/08/02 00:28:49;;;;;;;22.20;21.20;;;22.50;98.80;;;;;;5014033;28;20481;-53
2023/08/02 00:31:17;;;;;;;22.73;21.83;;;22.50;99.00;;;;;;5013742;28;20528;-58
2023/08/02 00:33:46;;;;;;;22.07;21.07;;;22.50;98.80;;;;;;5007363;28;20912;-54
2023/08/02 00:36:14;;;;;;;22.30;21.40;;;22.50;98.80;;;;;;5013945;28;20477;-54
2023/08/02 00:38:43;;;;;;;23.00;22.00;;;22.50;99.00;;;;;;5014049;28;20520;-56
2023/08/02 00:41:23;;;;;;;21.70;20.90;;;22.40;99.20;;;;;;5013524;28;20470;-53
2023/08/02 00:43:56;;;;;;;22.30;21.40;;;22.40;99.40;;;;;;5013806;28;20629;-55
2023/08/02 00:46:23;;;;;;;21.73;20.73;;;22.40;99.20;;;;;;5013847;28;20490;-53
2023/08/02 00:48:52;;;;;;;21.50;20.70;;;22.40;99.40;;;;;;5013270;28;20952;-55
2023/08/02 00:51:23;;;;;;;22.50;21.50;;;22.40;99.40;;;;;;5012006;28;20525;-55
2023/08/02 00:53:52;;;;;;;22.77;21.87;;;22.40;99.70;;;;;;5012185;28;20485;-54
2023/08/02 00:56:19;;;;;;;21.53;20.67;;;22.40;99.80;;;;;;5013066;28;20767;-53
2023/08/02 00:58:47;;;;;;;22.07;21.20;;;22.40;99.90;;;;;;5013385;28;20542;-57
2023/08/02 01:01:21;;;;;;;21.70;20.70;;;22.40;99.90;;;;;;5013331;28;20520;-57
2023/08/02 01:03:48;;;;;;;22.27;21.37;;;22.40;99.60;;;;;;5027798;23;20911;-51
2023/08/02 01:06:24;;;;;;;22.30;21.30;;;22.40;99.70;;;;;;4993646;28;20436;-55
2023/08/02 01:08:59;;;;;;;22.53;21.53;;;22.30;99.90;;;;;;4992235;28;20438;-52
2023/08/02 01:11:34;;;;;;;21.20;20.40;;;22.30;99.90;;;;;;4993267;28;20947;-53
2023/08/02 01:14:08;;;;;;;21.70;20.70;;;22.30;99.90;;;;;;5004605;28;20560;-52
2023/08/02 01:16:45;;;;;;;20.83;20.07;;;22.30;99.90;;;;;;5011986;28;20946;-54
2023/08/02 01:19:13;;;;;;;22.47;21.47;;;22.30;99.90;;;;;;5007809;28;21000;-53
2023/08/02 01:21:45;;;;;;;22.43;21.63;;;22.30;99.90;;;;;;5012914;28;20462;-56
2023/08/02 01:24:13;;;;;;;22.40;21.47;;;22.30;99.90;;;;;;5012599;28;20473;-53
2023/08/02 01:26:43;;;;;;;21.13;20.33;;;22.30;99.90;;;;;;5012730;28;20478;-57
2023/08/02 01:29:18;;;;;;;21.43;20.63;;;22.30;99.90;;;;;;5012168;28;20904;-56
2023/08/02 01:31:50;;;;;;;21.47;20.50;;;22.30;99.90;;;;;;5012738;28;20512;-51
2023/08/02 01:34:19;;;;;;;23.10;21.87;;;22.30;99.90;;;;;;5005273;28;20836;-53
2023/08/02 01:36:49;;;;;;;22.40;21.40;;;22.30;99.90;;;;;;5012699;28;20446;-54
2023/08/02 01:39:20;;;;;;;22.57;21.67;;;22.30;99.90;;;;;;5012337;28;20454;-55
2023/08/02 01:41:48;;;;;;;22.50;21.60;;;22.30;99.90;;;;;;5012494;28;20443;-54
2023/08/02 01:44:15;;;;;;;21.93;20.83;;;22.30;99.90;;;;;;5012347;28;20553;-52
2023/08/02 01:46:46;;;;;;;22.97;21.97;;;22.30;99.90;;;;;;5008588;28;20462;-52
2023/08/02 01:49:14;;;;;;;22.60;21.70;;;22.30;99.90;;;;;;5012163;28;20434;-54
2023/08/02 01:57:12;;;;;;;21.67;20.50;;;22.30;99.90;;;;;;5012104;28;20450;-55
2023/08/02 01:59:39;;;;;;;21.90;20.90;;;22.20;99.90;;;;;;5011670;28;20553;-56
2023/08/02 02:02:08;;;;;;;21.67;20.67;;;22.20;99.90;;;;;;5011265;28;20496;-53
2023/08/02 02:04:38;;;;;;;21.97;20.93;;;22.30;99.90;;;;;;5011991;28;20485;-53
2023/08/02 02:07:09;;;;;;;22.90;22.00;;;22.20;99.90;;;;;;5011716;28;20446;-54
2023/08/02 02:09:48;;;;;;;22.30;21.30;;;22.20;99.90;;;;;;5011082;28;20442;-57
2023/08/02 02:12:15;;;;;;;22.77;21.63;;;22.20;99.90;;;;;;5004100;28;20486;-53
2023/08/02 02:14:42;;;;;;;21.80;20.90;;;22.20;99.90;;;;;;5011991;28;20498;-56
2023/08/02 02:17:09;;;;;;;22.43;21.27;;;22.20;99.90;;;;;;5011879;28;20557;-55
2023/08/02 02:19:36;;;;;;;22.90;21.67;;;22.20;99.90;;;;;;5011599;28;20477;-55
2023/08/02 02:22:03;;;;;;;22.87;21.90;;;22.20;99.90;;;;;;5011592;28;20489;-54
2023/08/02 02:24:29;;;;;;;28.33;27.13;;;22.20;99.90;;;;;;5011690;28;20470;-57
2023/08/02 02:26:58;;;;;;;22.03;21.23;;;22.20;99.90;;;;;;5011633;28;20481;-55
2023/08/02 02:29:24;;;;;;;23.20;22.03;;;22.20;99.90;;;;;;5011585;28;20481;-55
2023/08/02 02:31:51;;;;;;;22.20;21.20;;;22.20;99.90;;;;;;5011398;28;20520;-54
2023/08/02 02:34:18;;;;;;;23.07;22.07;;;22.20;99.90;;;;;;5011583;28;20830;-55
2023/08/02 02:36:46;;;;;;;21.67;20.77;;;22.20;99.90;;;;;;5011601;28;20496;-55
2023/08/02 02:39:13;;;;;;;22.33;21.33;;;22.20;99.90;;;;;;5011202;28;20439;-52
2023/08/02 02:41:39;;;;;;;22.20;21.30;;;22.20;99.90;;;;;;5011371;28;20538;-54
2023/08/02 02:44:08;;;;;;;23.40;22.20;;;22.20;99.90;;;;;;5011489;28;20834;-56
2023/08/02 02:46:35;;;;;;;22.10;21.10;;;22.20;99.90;;;;;;5011234;28;20492;-55
2023/08/02 02:49:01;;;;;;;21.63;20.73;;;22.20;99.90;;;;;;5011279;28;20486;-56
2023/08/02 02:51:28;;;;;;;22.10;21.20;;;22.20;99.90;;;;;;5011386;28;20515;-52
2023/08/02 02:53:55;;;;;;;21.67;20.77;;;22.20;99.90;;;;;;5011259;28;20497;-57
2023/08/02 02:56:22;;;;;;;22.10;21.30;;;22.20;99.90;;;;;;5011737;28;20549;-54
2023/08/02 02:58:49;;;;;;;21.70;20.90;;;22.20;99.90;;;;;;5011352;28;20508;-54
2023/08/02 03:01:17;;;;;;;21.97;21.07;;;22.10;99.90;;;;;;5003179;28;20469;-57
2023/08/02 03:03:44;;;;;;;22.87;21.87;;;22.20;99.90;;;;;;5011160;28;20502;-55
2023/08/02 03:06:11;;;;;;;22.70;21.80;;;22.10;99.90;;;;;;5011247;28;20484;-56
2023/08/02 03:08:38;;;;;;;23.00;21.90;;;22.10;99.90;;;;;;5011272;28;20476;-55
2023/08/02 03:11:04;;;;;;;25.07;23.73;;;22.10;99.90;;;;;;5010820;28;20496;-54
2023/08/02 03:13:31;;;;;;;23.13;22.17;;;22.10;99.90;;;;;;5011448;28;20486;-56
2023/08/02 03:15:58;;;;;;;22.80;21.70;;;22.10;99.90;;;;;;5011211;28;20481;-56
2023/08/02 03:18:26;;;;;;;23.07;22.07;;;22.10;99.90;;;;;;5011213;28;20481;-54
2023/08/02 03:20:53;;;;;;;22.10;21.20;;;22.10;99.90;;;;;;5010818;28;20485;-53
2023/08/02 03:23:20;;;;;;;23.17;22.17;;;22.10;99.90;;;;;;5011141;28;20947;-55
2023/08/02 03:25:47;;;;;;;22.97;21.93;;;22.10;99.90;;;;;;5011047;28;20486;-50
2023/08/02 03:28:14;;;;;;;22.47;21.57;;;22.10;99.90;;;;;;5011089;28;20504;-57
2023/08/02 03:30:41;;;;;;;23.17;22.20;;;22.10;99.90;;;;;;5011060;28;20470;-51
2023/08/02 03:33:07;;;;;;;23.23;22.33;;;22.10;99.90;;;;;;5010723;28;20568;-57
2023/08/02 03:35:36;;;;;;;23.20;22.30;;;22.10;99.90;;;;;;5011176;28;20477;-53
2023/08/02 03:38:03;;;;;;;23.07;22.07;;;22.10;99.90;;;;;;5010810;28;20532;-56
2023/08/02 03:40:29;;;;;;;24.60;23.00;;;22.10;99.90;;;;;;5010786;28;20477;-51
2023/08/02 03:42:56;;;;;;;23.63;22.50;;;22.10;99.90;;;;;;5010860;28;20486;-57
2023/08/02 03:45:23;;;;;;;23.40;22.50;;;22.10;99.90;;;;;;5011129;28;20488;-56
2023/08/02 03:47:50;;;;;;;23.73;22.63;;;22.10;99.90;;;;;;5011200;28;20453;-57
2023/08/02 03:50:17;;;;;;;23.43;22.33;;;22.10;99.90;;;;;;5010812;28;20481;-54
2023/08/02 03:52:45;;;;;;;23.07;22.10;;;22.10;99.90;;;;;;5010849;28;21042;-53
2023/08/02 03:55:12;;;;;;;23.80;22.60;;;22.10;99.90;;;;;;5010575;28;20486;-56
2023/08/02 03:57:39;;;;;;;22.67;21.60;;;22.00;99.90;;;;;;5010912;28;20478;-56
2023/08/02 04:00:07;;;;;;;24.93;23.93;;;22.00;99.90;;;;;;5013499;28;20473;-54
2023/08/02 04:02:35;;;;;;;24.80;23.80;;;22.00;99.90;;;;;;5014263;28;20473;-53
2023/08/02 04:05:02;;;;;;;24.70;23.60;;;22.00;99.90;;;;;;5014475;28;20819;-50
2023/08/02 04:07:28;;;;;;;24.70;23.80;;;22.00;99.90;;;;;;5014269;28;20538;-53
2023/08/02 04:09:57;;;;;;;24.40;23.40;;;22.00;99.90;;;;;;5013916;28;20477;-56
2023/08/02 04:12:24;;;;;;;25.60;24.57;;;22.10;99.90;;;;;;5013719;28;20556;-52
2023/08/02 04:14:50;;;;;;;25.10;24.07;;;22.00;99.90;;;;;;5014017;28;20541;-55
2023/08/02 04:17:17;;;;;;;23.40;22.50;;;22.00;99.90;;;;;;5014000;28;20466;-58
2023/08/02 04:19:44;;;;;;;35.73;34.33;;;22.00;99.90;;;;;;5013808;28;20508;-56
2023/08/02 04:22:12;;;;;;;35.20;34.00;;;22.00;99.90;;;;;;5013893;28;20477;-57
2023/08/02 04:24:40;;;;;;;36.33;34.87;;;22.10;99.90;;;;;;5013928;28;20553;-60
2023/08/02 04:27:10;;;;;;;36.10;34.90;;;22.10;99.90;;;;;;5013870;28;20446;-57
2023/08/02 04:29:39;;;;;;;36.03;34.73;;;22.20;99.90;;;;;;5012000;28;20458;-58
2023/08/02 04:32:14;;;;;;;34.53;33.33;;;22.30;99.90;;;;;;5013602;28;20482;-53
2023/08/02 04:34:43;;;;;;;35.50;34.30;;;22.40;99.90;;;;;;5013764;28;20469;-57
2023/08/02 04:37:13;;;;;;;37.40;36.10;;;22.50;99.90;;;;;;5013284;28;20457;-58
2023/08/02 04:39:40;;;;;;;36.70;35.50;;;22.60;99.90;;;;;;5013404;28;20464;-55
2023/08/02 04:42:12;;;;;;;38.00;36.60;;;22.70;99.90;;;;;;5013623;28;20474;-59
2023/08/02 04:44:39;;;;;;;38.20;36.90;;;22.80;99.90;;;;;;5009809;28;20473;-57
2023/08/02 04:47:09;;;;;;;36.97;35.43;;;23.00;99.90;;;;;;5013482;28;20477;-55
2023/08/02 04:49:36;;;;;;;37.90;36.40;;;23.10;99.90;;;;;;5013193;28;20456;-58
2023/08/02 04:52:09;;;;;;;37.80;36.40;;;23.20;99.90;;;;;;5013113;28;20871;-58
2023/08/02 04:54:37;;;;;;;41.27;39.37;;;23.30;99.90;;;;;;5011484;28;20461;-57
2023/08/02 04:57:08;;;;;;;40.27;38.43;;;23.50;99.90;;;;;;5013607;28;21010;-54
2023/08/02 04:59:38;;;;;;;37.80;36.30;;;23.60;99.90;;;;;;5012830;28;20461;-58
2023/08/02 05:02:08;;;;;;;36.60;35.10;;;23.70;99.90;;;;;;5011172;28;21106;-55
2023/08/02 05:04:37;;;;;;;36.37;35.00;;;23.90;99.90;;;;;;5012944;28;20477;-56
2023/08/02 05:07:07;;;;;;;39.53;37.40;;;24.00;99.90;;;;;;5013078;28;20466;-57
